sensor_id;sensor_type;location;lat;lon;timestamp;temperature;humidity
46490;DHT22;32204;49.160;8.580;2023-11-18T00:00:31;8.60;99.90
46490;DHT22;32204;49.160;8.580;2023-11-18T00:02:58;8.50;99.90
46490;DHT22;32204;49.160;8.580;2023-11-18T00:05:24;8.50;99.90
46490;DHT22;32204;49.160;8.580;2023-11-18T00:07:50;8.50;99.90
46490;DHT22;32204;49.160;8.580;2023-11-18T00:10:16;8.40;99.90
46490;DHT22;32204;49.160;8.580;2023-11-18T00:12:42;8.50;99.90
46490;DHT22;32204;49.160;8.580;2023-11-18T00:15:08;8.60;99.90
46490;DHT22;32204;49.160;8.580;2023-11-18T00:17:36;8.60;99.90
46490;DHT22;32204;49.160;8.580;2023-11-18T00:20:02;8.60;99.90
46490;DHT22;32204;49.160;8.580;2023-11-18T00:22:35;8.60;99.90
46490;DHT22;32204;49.160;8.580;2023-11-18T00:25:05;8.60;99.90
46490;DHT22;32204;49.160;8.580;2023-11-18T00:27:31;8.50;99.90
46490;DHT22;32204;49.160;8.580;2023-11-18T00:29:57;8.50;99.90
46490;DHT22;32204;49.160;8.580;2023-11-18T00:32:22;8.60;99.90
46490;DHT22;32204;49.160;8.580;2023-11-18T00:34:48;8.50;99.90
46490;DHT22;32204;49.160;8.580;2023-11-18T00:37:13;8.60;99.90
46490;DHT22;32204;49.160;8.580;2023-11-18T00:39:39;8.50;99.90
46490;DHT22;32204;49.160;8.580;2023-11-18T00:42:05;8.50;99.90
46490;DHT22;32204;49.160;8.580;2023-11-18T00:44:31;8.50;99.90
46490;DHT22;32204;49.160;8.580;2023-11-18T00:46:56;8.60;99.90
46490;DHT22;32204;49.160;8.580;2023-11-18T00:49:23;8.60;99.90
46490;DHT22;32204;49.160;8.580;2023-11-18T00:51:48;8.60;99.90
46490;DHT22;32204;49.160;8.580;2023-11-18T00:54:14;8.60;99.90
46490;DHT22;32204;49.160;8.580;2023-11-18T00:56:40;8.60;99.90
46490;DHT22;32204;49.160;8.580;2023-11-18T00:59:06;8.60;99.90
46490;DHT22;32204;49.160;8.580;2023-11-18T01:01:32;8.60;99.90
46490;DHT22;32204;49.160;8.580;2023-11-18T01:03:57;8.60;99.90
46490;DHT22;32204;49.160;8.580;2023-11-18T01:06:25;8.60;99.90
46490;DHT22;32204;49.160;8.580;2023-11-18T01:08:51;8.60;99.90
46490;DHT22;32204;49.160;8.580;2023-11-18T01:11:17;8.60;99.90
46490;DHT22;32204;49.160;8.580;2023-11-18T01:13:48;8.60;99.90
46490;DHT22;32204;49.160;8.580;2023-11-18T01:16:14;8.50;99.90
46490;DHT22;32204;49.160;8.580;2023-11-18T01:18:41;8.50;99.90
46490;DHT22;32204;49.160;8.580;2023-11-18T01:21:07;8.50;99.90
46490;DHT22;32204;49.160;8.580;2023-11-18T01:23:36;8.40;99.90
46490;DHT22;32204;49.160;8.580;2023-11-18T01:26:03;8.50;99.90
46490;DHT22;32204;49.160;8.580;2023-11-18T01:28:33;8.50;99.90
46490;DHT22;32204;49.160;8.580;2023-11-18T01:31:03;8.50;99.90
46490;DHT22;32204;49.160;8.580;2023-11-18T01:33:29;8.50;99.90
46490;DHT22;32204;49.160;8.580;2023-11-18T01:35:55;8.60;99.90
46490;DHT22;32204;49.160;8.580;2023-11-18T01:38:21;8.50;99.90
46490;DHT22;32204;49.160;8.580;2023-11-18T01:40:46;8.50;99.90
46490;DHT22;32204;49.160;8.580;2023-11-18T01:43:12;8.60;99.90
46490;DHT22;32204;49.160;8.580;2023-11-18T01:45:40;8.60;99.90
46490;DHT22;32204;49.160;8.580;2023-11-18T01:48:07;8.50;99.90
46490;DHT22;32204;49.160;8.580;2023-11-18T01:50:35;8.50;99.90
46490;DHT22;32204;49.160;8.580;2023-11-18T01:53:03;8.40;99.90
46490;DHT22;32204;49.160;8.580;2023-11-18T01:55:29;8.50;99.90
46490;DHT22;32204;49.160;8.580;2023-11-18T01:57:54;8.60;99.90
46490;DHT22;32204;49.160;8.580;2023-11-18T02:00:22;8.60;99.90
46490;DHT22;32204;49.160;8.580;2023-11-18T02:02:48;8.60;99.90
46490;DHT22;32204;49.160;8.580;2023-11-18T02:05:15;8.60;99.90
46490;DHT22;32204;49.160;8.580;2023-11-18T02:07:42;8.50;99.90
46490;DHT22;32204;49.160;8.580;2023-11-18T02:10:08;8.50;99.90
46490;DHT22;32204;49.160;8.580;2023-11-18T02:12:46;8.50;99.90
46490;DHT22;32204;49.160;8.580;2023-11-18T02:15:14;8.40;99.90
46490;DHT22;32204;49.160;8.580;2023-11-18T02:17:41;8.40;99.90
46490;DHT22;32204;49.160;8.580;2023-11-18T02:20:08;8.40;99.90
46490;DHT22;32204;49.160;8.580;2023-11-18T02:22:42;8.50;99.90
46490;DHT22;32204;49.160;8.580;2023-11-18T02:25:09;8.40;99.90
46490;DHT22;32204;49.160;8.580;2023-11-18T02:27:37;8.40;99.90
46490;DHT22;32204;49.160;8.580;2023-11-18T02:30:03;8.40;99.90
46490;DHT22;32204;49.160;8.580;2023-11-18T02:32:42;8.40;99.90
46490;DHT22;32204;49.160;8.580;2023-11-18T02:35:30;8.30;99.90
46490;DHT22;32204;49.160;8.580;2023-11-18T02:37:59;8.30;99.90
46490;DHT22;32204;49.160;8.580;2023-11-18T02:40:41;8.20;99.90
46490;DHT22;32204;49.160;8.580;2023-11-18T02:43:09;8.20;99.90
46490;DHT22;32204;49.160;8.580;2023-11-18T02:45:36;8.20;99.90
46490;DHT22;32204;49.160;8.580;2023-11-18T02:48:03;8.20;99.90
46490;DHT22;32204;49.160;8.580;2023-11-18T02:50:30;8.20;99.90
46490;DHT22;32204;49.160;8.580;2023-11-18T02:52:55;8.20;99.90
46490;DHT22;32204;49.160;8.580;2023-11-18T02:55:21;8.20;99.90
46490;DHT22;32204;49.160;8.580;2023-11-18T02:57:48;8.20;99.90
46490;DHT22;32204;49.160;8.580;2023-11-18T03:00:15;8.10;99.90
46490;DHT22;32204;49.160;8.580;2023-11-18T03:02:47;8.20;99.90
46490;DHT22;32204;49.160;8.580;2023-11-18T03:05:14;8.20;99.90
46490;DHT22;32204;49.160;8.580;2023-11-18T03:07:44;8.10;99.90
46490;DHT22;32204;49.160;8.580;2023-11-18T03:10:12;8.20;99.90
46490;DHT22;32204;49.160;8.580;2023-11-18T03:12:49;8.30;99.90
46490;DHT22;32204;49.160;8.580;2023-11-18T03:15:16;8.30;99.90
46490;DHT22;32204;49.160;8.580;2023-11-18T03:17:45;8.20;99.90
46490;DHT22;32204;49.160;8.580;2023-11-18T03:20:13;8.10;99.90
46490;DHT22;32204;49.160;8.580;2023-11-18T03:22:42;8.10;99.90
46490;DHT22;32204;49.160;8.580;2023-11-18T03:25:09;8.10;99.90
46490;DHT22;32204;49.160;8.580;2023-11-18T03:27:35;8.00;99.90
46490;DHT22;32204;49.160;8.580;2023-11-18T03:30:00;8.00;99.90
46490;DHT22;32204;49.160;8.580;2023-11-18T03:32:26;7.90;99.90
46490;DHT22;32204;49.160;8.580;2023-11-18T03:34:52;7.90;99.90
46490;DHT22;32204;49.160;8.580;2023-11-18T03:37:17;7.90;99.90
46490;DHT22;32204;49.160;8.580;2023-11-18T03:39:45;7.90;99.90
46490;DHT22;32204;49.160;8.580;2023-11-18T03:42:10;7.90;99.90
46490;DHT22;32204;49.160;8.580;2023-11-18T03:44:36;8.00;99.90
46490;DHT22;32204;49.160;8.580;2023-11-18T03:47:03;8.00;99.90
46490;DHT22;32204;49.160;8.580;2023-11-18T03:49:28;8.00;99.90
46490;DHT22;32204;49.160;8.580;2023-11-18T03:51:54;8.00;99.90
46490;DHT22;32204;49.160;8.580;2023-11-18T03:54:20;8.10;99.90
46490;DHT22;32204;49.160;8.580;2023-11-18T03:56:45;8.10;99.90
46490;DHT22;32204;49.160;8.580;2023-11-18T03:59:11;8.20;99.90
46490;DHT22;32204;49.160;8.580;2023-11-18T04:01:36;8.10;99.90
46490;DHT22;32204;49.160;8.580;2023-11-18T04:04:02;8.10;99.90
46490;DHT22;32204;49.160;8.580;2023-11-18T04:06:29;8.10;99.90
46490;DHT22;32204;49.160;8.580;2023-11-18T04:08:55;8.10;99.90
46490;DHT22;32204;49.160;8.580;2023-11-18T04:11:21;8.10;99.90
46490;DHT22;32204;49.160;8.580;2023-11-18T04:13:46;8.20;99.90
46490;DHT22;32204;49.160;8.580;2023-11-18T04:16:15;8.20;99.90
46490;DHT22;32204;49.160;8.580;2023-11-18T04:18:42;8.20;99.90
46490;DHT22;32204;49.160;8.580;2023-11-18T04:21:09;8.20;99.90
46490;DHT22;32204;49.160;8.580;2023-11-18T04:23:38;8.20;99.90
46490;DHT22;32204;49.160;8.580;2023-11-18T04:26:05;8.10;99.90
46490;DHT22;32204;49.160;8.580;2023-11-18T04:28:31;8.10;99.90
46490;DHT22;32204;49.160;8.580;2023-11-18T04:30:56;8.00;99.90
46490;DHT22;32204;49.160;8.580;2023-11-18T04:33:22;8.00;99.90
46490;DHT22;32204;49.160;8.580;2023-11-18T04:35:50;8.10;99.90
46490;DHT22;32204;49.160;8.580;2023-11-18T04:38:16;8.10;99.90
46490;DHT22;32204;49.160;8.580;2023-11-18T04:40:42;8.10;99.90
46490;DHT22;32204;49.160;8.580;2023-11-18T04:43:10;8.10;99.90
46490;DHT22;32204;49.160;8.580;2023-11-18T04:45:36;8.10;99.90
46490;DHT22;32204;49.160;8.580;2023-11-18T04:48:03;8.20;99.90
46490;DHT22;32204;49.160;8.580;2023-11-18T04:50:29;8.20;99.90
46490;DHT22;32204;49.160;8.580;2023-11-18T04:52:55;8.20;99.90
46490;DHT22;32204;49.160;8.580;2023-11-18T04:55:21;8.30;99.90
46490;DHT22;32204;49.160;8.580;2023-11-18T04:57:47;8.40;99.90
46490;DHT22;32204;49.160;8.580;2023-11-18T05:00:13;8.40;99.90
46490;DHT22;32204;49.160;8.580;2023-11-18T05:02:42;8.40;99.90
46490;DHT22;32204;49.160;8.580;2023-11-18T05:05:08;8.40;99.90
46490;DHT22;32204;49.160;8.580;2023-11-18T05:07:34;8.30;99.90
46490;DHT22;32204;49.160;8.580;2023-11-18T05:10:01;8.20;99.90
46490;DHT22;32204;49.160;8.580;2023-11-18T05:12:28;8.30;99.90
46490;DHT22;32204;49.160;8.580;2023-11-18T05:14:55;8.30;99.90
46490;DHT22;32204;49.160;8.580;2023-11-18T05:17:22;8.30;99.90
46490;DHT22;32204;49.160;8.580;2023-11-18T05:19:48;8.40;99.90
46490;DHT22;32204;49.160;8.580;2023-11-18T05:22:13;8.40;99.90
46490;DHT22;32204;49.160;8.580;2023-11-18T05:24:39;8.50;99.90
46490;DHT22;32204;49.160;8.580;2023-11-18T05:27:05;8.40;99.90
46490;DHT22;32204;49.160;8.580;2023-11-18T05:29:31;8.40;99.90
46490;DHT22;32204;49.160;8.580;2023-11-18T05:31:57;8.30;99.90
46490;DHT22;32204;49.160;8.580;2023-11-18T05:34:24;8.30;99.90
46490;DHT22;32204;49.160;8.580;2023-11-18T05:36:50;8.20;99.90
46490;DHT22;32204;49.160;8.580;2023-11-18T05:39:23;8.20;99.90
46490;DHT22;32204;49.160;8.580;2023-11-18T05:41:50;8.10;99.90
46490;DHT22;32204;49.160;8.580;2023-11-18T05:44:17;8.00;99.90
46490;DHT22;32204;49.160;8.580;2023-11-18T05:46:45;8.00;99.90
46490;DHT22;32204;49.160;8.580;2023-11-18T05:49:17;8.10;99.90
46490;DHT22;32204;49.160;8.580;2023-11-18T05:51:43;8.10;99.90
46490;DHT22;32204;49.160;8.580;2023-11-18T05:54:09;8.10;99.90
46490;DHT22;32204;49.160;8.580;2023-11-18T05:56:35;8.20;99.90
46490;DHT22;32204;49.160;8.580;2023-11-18T05:59:01;8.10;99.90
46490;DHT22;32204;49.160;8.580;2023-11-18T06:01:28;8.10;99.90
46490;DHT22;32204;49.160;8.580;2023-11-18T06:03:54;8.10;99.90
46490;DHT22;32204;49.160;8.580;2023-11-18T06:06:20;8.10;99.90
46490;DHT22;32204;49.160;8.580;2023-11-18T06:08:47;8.10;99.90
46490;DHT22;32204;49.160;8.580;2023-11-18T06:11:14;8.10;99.90
46490;DHT22;32204;49.160;8.580;2023-11-18T06:13:51;8.10;99.90
46490;DHT22;32204;49.160;8.580;2023-11-18T06:16:24;8.10;99.90
46490;DHT22;32204;49.160;8.580;2023-11-18T06:18:52;8.00;99.90
46490;DHT22;32204;49.160;8.580;2023-11-18T06:21:20;8.00;99.90
46490;DHT22;32204;49.160;8.580;2023-11-18T06:23:47;8.00;99.90
46490;DHT22;32204;49.160;8.580;2023-11-18T06:26:13;8.00;99.90
46490;DHT22;32204;49.160;8.580;2023-11-18T06:28:41;8.00;99.90
46490;DHT22;32204;49.160;8.580;2023-11-18T06:31:07;8.00;99.90
46490;DHT22;32204;49.160;8.580;2023-11-18T06:33:40;8.00;99.90
46490;DHT22;32204;49.160;8.580;2023-11-18T06:36:18;8.00;99.90
46490;DHT22;32204;49.160;8.580;2023-11-18T06:38:44;8.00;99.90
46490;DHT22;32204;49.160;8.580;2023-11-18T06:41:10;8.10;99.90
46490;DHT22;32204;49.160;8.580;2023-11-18T06:43:40;8.10;99.90
46490;DHT22;32204;49.160;8.580;2023-11-18T06:46:23;8.10;99.90
46490;DHT22;32204;49.160;8.580;2023-11-18T06:48:52;8.10;99.90
46490;DHT22;32204;49.160;8.580;2023-11-18T06:51:23;8.10;99.90
46490;DHT22;32204;49.160;8.580;2023-11-18T06:53:50;8.10;99.90
46490;DHT22;32204;49.160;8.580;2023-11-18T06:56:16;8.10;99.90
46490;DHT22;32204;49.160;8.580;2023-11-18T06:58:42;8.10;99.90
46490;DHT22;32204;49.160;8.580;2023-11-18T07:01:08;8.20;99.90
46490;DHT22;32204;49.160;8.580;2023-11-18T07:03:35;8.20;99.90
46490;DHT22;32204;49.160;8.580;2023-11-18T07:06:04;8.30;99.90
46490;DHT22;32204;49.160;8.580;2023-11-18T07:08:31;8.30;99.90
46490;DHT22;32204;49.160;8.580;2023-11-18T07:10:57;8.30;99.90
46490;DHT22;32204;49.160;8.580;2023-11-18T07:13:23;8.40;99.90
46490;DHT22;32204;49.160;8.580;2023-11-18T07:15:49;8.30;99.90
46490;DHT22;32204;49.160;8.580;2023-11-18T07:18:15;8.20;99.90
46490;DHT22;32204;49.160;8.580;2023-11-18T07:20:42;8.20;99.90
46490;DHT22;32204;49.160;8.580;2023-11-18T07:23:07;8.20;99.90
46490;DHT22;32204;49.160;8.580;2023-11-18T07:25:34;8.20;99.90
46490;DHT22;32204;49.160;8.580;2023-11-18T07:27:59;8.20;99.90
46490;DHT22;32204;49.160;8.580;2023-11-18T07:30:25;8.30;99.90
46490;DHT22;32204;49.160;8.580;2023-11-18T07:32:51;8.30;99.90
46490;DHT22;32204;49.160;8.580;2023-11-18T07:35:17;8.50;99.90
46490;DHT22;32204;49.160;8.580;2023-11-18T07:37:43;8.40;99.90
46490;DHT22;32204;49.160;8.580;2023-11-18T07:40:09;8.50;99.90
46490;DHT22;32204;49.160;8.580;2023-11-18T07:42:37;8.50;99.90
46490;DHT22;32204;49.160;8.580;2023-11-18T07:45:04;8.50;99.90
46490;DHT22;32204;49.160;8.580;2023-11-18T07:47:33;8.50;99.90
46490;DHT22;32204;49.160;8.580;2023-11-18T07:49:59;8.50;99.90
46490;DHT22;32204;49.160;8.580;2023-11-18T07:52:29;8.50;99.90
46490;DHT22;32204;49.160;8.580;2023-11-18T07:54:55;8.60;99.90
46490;DHT22;32204;49.160;8.580;2023-11-18T07:57:20;8.50;99.90
46490;DHT22;32204;49.160;8.580;2023-11-18T07:59:46;8.50;99.90
46490;DHT22;32204;49.160;8.580;2023-11-18T08:02:11;8.60;99.90
46490;DHT22;32204;49.160;8.580;2023-11-18T08:04:40;8.60;99.90
46490;DHT22;32204;49.160;8.580;2023-11-18T08:07:06;8.60;99.90
46490;DHT22;32204;49.160;8.580;2023-11-18T08:09:33;8.60;99.90
46490;DHT22;32204;49.160;8.580;2023-11-18T08:11:58;8.50;99.90
46490;DHT22;32204;49.160;8.580;2023-11-18T08:14:24;8.60;99.90
46490;DHT22;32204;49.160;8.580;2023-11-18T08:16:50;8.60;99.90
46490;DHT22;32204;49.160;8.580;2023-11-18T08:19:16;8.50;99.90
46490;DHT22;32204;49.160;8.580;2023-11-18T08:21:43;8.60;99.90
46490;DHT22;32204;49.160;8.580;2023-11-18T08:24:08;8.80;99.90
46490;DHT22;32204;49.160;8.580;2023-11-18T08:26:35;8.80;99.90
46490;DHT22;32204;49.160;8.580;2023-11-18T08:29:01;8.90;99.90
46490;DHT22;32204;49.160;8.580;2023-11-18T08:31:27;8.80;99.90
46490;DHT22;32204;49.160;8.580;2023-11-18T08:33:52;8.80;99.90
46490;DHT22;32204;49.160;8.580;2023-11-18T08:36:20;8.90;99.90
46490;DHT22;32204;49.160;8.580;2023-11-18T08:38:46;9.00;99.90
46490;DHT22;32204;49.160;8.580;2023-11-18T08:41:12;9.10;99.90
46490;DHT22;32204;49.160;8.580;2023-11-18T08:43:38;9.00;1.00
46490;DHT22;32204;49.160;8.580;2023-11-18T08:46:06;9.00;1.00
46490;DHT22;32204;49.160;8.580;2023-11-18T08:48:33;8.90;99.90
46490;DHT22;32204;49.160;8.580;2023-11-18T08:50:59;8.90;53.80
46490;DHT22;32204;49.160;8.580;2023-11-18T08:53:27;9.00;99.90
46490;DHT22;32204;49.160;8.580;2023-11-18T08:55:53;9.00;1.00
46490;DHT22;32204;49.160;8.580;2023-11-18T08:58:22;9.00;1.00
46490;DHT22;32204;49.160;8.580;2023-11-18T09:00:54;8.90;1.00
46490;DHT22;32204;49.160;8.580;2023-11-18T09:03:25;8.70;14.40
46490;DHT22;32204;49.160;8.580;2023-11-18T09:05:55;8.80;99.90
46490;DHT22;32204;49.160;8.580;2023-11-18T09:10:52;8.80;99.90
46490;DHT22;32204;49.160;8.580;2023-11-18T09:13:22;8.90;99.90
46490;DHT22;32204;49.160;8.580;2023-11-18T09:15:48;8.80;99.90
46490;DHT22;32204;49.160;8.580;2023-11-18T09:18:15;9.00;99.90
46490;DHT22;32204;49.160;8.580;2023-11-18T09:20:43;9.10;1.00
46490;DHT22;32204;49.160;8.580;2023-11-18T09:23:08;9.00;99.90
46490;DHT22;32204;49.160;8.580;2023-11-18T09:25:34;9.10;99.90
46490;DHT22;32204;49.160;8.580;2023-11-18T09:28:00;9.10;1.00
46490;DHT22;32204;49.160;8.580;2023-11-18T09:30:25;9.20;1.00
46490;DHT22;32204;49.160;8.580;2023-11-18T09:32:51;9.40;99.90
46490;DHT22;32204;49.160;8.580;2023-11-18T09:35:17;9.50;22.90
46490;DHT22;32204;49.160;8.580;2023-11-18T09:37:45;9.40;27.00
46490;DHT22;32204;49.160;8.580;2023-11-18T09:40:14;9.30;99.90
46490;DHT22;32204;49.160;8.580;2023-11-18T09:42:40;9.40;1.00
46490;DHT22;32204;49.160;8.580;2023-11-18T09:45:08;9.40;6.60
46490;DHT22;32204;49.160;8.580;2023-11-18T09:47:43;9.40;99.90
46490;DHT22;32204;49.160;8.580;2023-11-18T09:50:19;9.50;99.90
46490;DHT22;32204;49.160;8.580;2023-11-18T09:52:54;9.70;99.90
46490;DHT22;32204;49.160;8.580;2023-11-18T09:55:37;9.80;99.90
46490;DHT22;32204;49.160;8.580;2023-11-18T09:58:07;9.90;1.00
46490;DHT22;32204;49.160;8.580;2023-11-18T10:00:38;9.90;83.10
46490;DHT22;32204;49.160;8.580;2023-11-18T10:03:07;9.80;99.90
46490;DHT22;32204;49.160;8.580;2023-11-18T10:05:36;9.70;83.10
46490;DHT22;32204;49.160;8.580;2023-11-18T10:08:03;9.70;99.90
46490;DHT22;32204;49.160;8.580;2023-11-18T10:10:31;9.80;99.90
46490;DHT22;32204;49.160;8.580;2023-11-18T10:13:11;9.70;1.00
46490;DHT22;32204;49.160;8.580;2023-11-18T10:15:49;9.60;99.90
46490;DHT22;32204;49.160;8.580;2023-11-18T10:18:18;9.50;1.00
46490;DHT22;32204;49.160;8.580;2023-11-18T10:20:50;9.40;99.10
46490;DHT22;32204;49.160;8.580;2023-11-18T10:23:21;9.40;14.90
46490;DHT22;32204;49.160;8.580;2023-11-18T10:25:52;9.60;99.90
46490;DHT22;32204;49.160;8.580;2023-11-18T10:28:26;9.70;1.00
46490;DHT22;32204;49.160;8.580;2023-11-18T10:33:26;9.80;1.00
46490;DHT22;32204;49.160;8.580;2023-11-18T10:35:59;9.70;99.90
46490;DHT22;32204;49.160;8.580;2023-11-18T10:38:30;9.60;99.90
46490;DHT22;32204;49.160;8.580;2023-11-18T10:40:57;9.50;99.90
46490;DHT22;32204;49.160;8.580;2023-11-18T10:43:24;9.60;99.90
46490;DHT22;32204;49.160;8.580;2023-11-18T10:46:07;9.70;1.00
46490;DHT22;32204;49.160;8.580;2023-11-18T10:48:57;9.90;1.00
46490;DHT22;32204;49.160;8.580;2023-11-18T10:51:23;9.90;99.90
46490;DHT22;32204;49.160;8.580;2023-11-18T10:53:53;10.00;99.90
46490;DHT22;32204;49.160;8.580;2023-11-18T10:56:28;10.00;99.90
46490;DHT22;32204;49.160;8.580;2023-11-18T10:59:05;9.90;1.00
46490;DHT22;32204;49.160;8.580;2023-11-18T11:01:35;10.10;99.90
46490;DHT22;32204;49.160;8.580;2023-11-18T11:04:04;10.30;73.30
46490;DHT22;32204;49.160;8.580;2023-11-18T11:06:32;10.20;99.90
46490;DHT22;32204;49.160;8.580;2023-11-18T11:08:58;10.20;95.00
46490;DHT22;32204;49.160;8.580;2023-11-18T11:11:25;10.20;1.00
46490;DHT22;32204;49.160;8.580;2023-11-18T11:13:57;10.20;95.30
46490;DHT22;32204;49.160;8.580;2023-11-18T11:16:29;10.20;1.00
46490;DHT22;32204;49.160;8.580;2023-11-18T11:19:01;10.20;99.90
46490;DHT22;32204;49.160;8.580;2023-11-18T11:21:39;10.20;1.00
46490;DHT22;32204;49.160;8.580;2023-11-18T11:24:28;10.30;99.90
46490;DHT22;32204;49.160;8.580;2023-11-18T11:27:14;10.20;1.00
46490;DHT22;32204;49.160;8.580;2023-11-18T11:29:59;10.20;99.90
46490;DHT22;32204;49.160;8.580;2023-11-18T11:32:39;10.10;99.90
46490;DHT22;32204;49.160;8.580;2023-11-18T11:35:16;10.10;99.90
46490;DHT22;32204;49.160;8.580;2023-11-18T11:37:47;10.10;99.90
46490;DHT22;32204;49.160;8.580;2023-11-18T11:40:14;10.10;99.90
46490;DHT22;32204;49.160;8.580;2023-11-18T11:42:48;10.00;1.00
46490;DHT22;32204;49.160;8.580;2023-11-18T11:45:21;9.90;1.00
46490;DHT22;32204;49.160;8.580;2023-11-18T11:47:49;10.00;99.90
46490;DHT22;32204;49.160;8.580;2023-11-18T11:50:27;10.00;99.90
46490;DHT22;32204;49.160;8.580;2023-11-18T11:53:04;10.10;1.00
46490;DHT22;32204;49.160;8.580;2023-11-18T11:55:47;10.20;1.00
46490;DHT22;32204;49.160;8.580;2023-11-18T11:58:30;10.20;99.90
46490;DHT22;32204;49.160;8.580;2023-11-18T12:01:15;10.30;1.00
46490;DHT22;32204;49.160;8.580;2023-11-18T12:03:44;10.20;1.00
46490;DHT22;32204;49.160;8.580;2023-11-18T12:06:17;10.20;99.90
46490;DHT22;32204;49.160;8.580;2023-11-18T12:08:47;10.10;1.00
46490;DHT22;32204;49.160;8.580;2023-11-18T12:11:17;10.20;99.90
46490;DHT22;32204;49.160;8.580;2023-11-18T12:14:03;10.20;1.00
46490;DHT22;32204;49.160;8.580;2023-11-18T12:16:57;10.20;1.00
46490;DHT22;32204;49.160;8.580;2023-11-18T12:19:30;10.10;99.90
46490;DHT22;32204;49.160;8.580;2023-11-18T12:22:10;10.20;99.90
46490;DHT22;32204;49.160;8.580;2023-11-18T12:33:02;10.00;99.90
46490;DHT22;32204;49.160;8.580;2023-11-18T12:40:53;10.30;99.90
46490;DHT22;32204;49.160;8.580;2023-11-18T12:49:14;10.60;95.90
46490;DHT22;32204;49.160;8.580;2023-11-18T12:51:42;10.60;1.00
46490;DHT22;32204;49.160;8.580;2023-11-18T12:54:09;10.50;99.90
46490;DHT22;32204;49.160;8.580;2023-11-18T12:56:40;10.50;99.90
46490;DHT22;32204;49.160;8.580;2023-11-18T12:59:09;10.50;36.90
46490;DHT22;32204;49.160;8.580;2023-11-18T13:01:38;10.60;22.10
46490;DHT22;32204;49.160;8.580;2023-11-18T13:04:07;10.60;99.90
46490;DHT22;32204;49.160;8.580;2023-11-18T13:06:34;10.50;19.70
46490;DHT22;32204;49.160;8.580;2023-11-18T13:09:00;10.50;1.00
46490;DHT22;32204;49.160;8.580;2023-11-18T13:11:31;10.50;99.90
46490;DHT22;32204;49.160;8.580;2023-11-18T13:13:59;10.50;99.90
46490;DHT22;32204;49.160;8.580;2023-11-18T13:16:24;10.40;1.00
46490;DHT22;32204;49.160;8.580;2023-11-18T13:18:51;10.50;99.90
46490;DHT22;32204;49.160;8.580;2023-11-18T13:21:18;10.50;99.90
46490;DHT22;32204;49.160;8.580;2023-11-18T13:23:49;10.40;1.00
46490;DHT22;32204;49.160;8.580;2023-11-18T13:26:18;10.40;1.00
46490;DHT22;32204;49.160;8.580;2023-11-18T13:28:46;10.40;99.90
46490;DHT22;32204;49.160;8.580;2023-11-18T13:31:11;10.40;1.00
46490;DHT22;32204;49.160;8.580;2023-11-18T13:33:42;10.40;1.00
46490;DHT22;32204;49.160;8.580;2023-11-18T13:36:09;10.30;1.00
46490;DHT22;32204;49.160;8.580;2023-11-18T13:38:36;10.20;99.90
46490;DHT22;32204;49.160;8.580;2023-11-18T13:41:03;10.20;20.40
46490;DHT22;32204;49.160;8.580;2023-11-18T13:43:44;10.20;99.90
46490;DHT22;32204;49.160;8.580;2023-11-18T13:46:14;10.10;99.90
46490;DHT22;32204;49.160;8.580;2023-11-18T13:48:40;10.10;99.90
46490;DHT22;32204;49.160;8.580;2023-11-18T13:51:09;10.10;99.90
46490;DHT22;32204;49.160;8.580;2023-11-18T13:53:38;10.00;99.90
46490;DHT22;32204;49.160;8.580;2023-11-18T13:56:06;9.90;99.90
46490;DHT22;32204;49.160;8.580;2023-11-18T13:58:34;9.90;99.90
46490;DHT22;32204;49.160;8.580;2023-11-18T14:01:00;9.90;99.90
46490;DHT22;32204;49.160;8.580;2023-11-18T14:03:26;9.90;99.90
46490;DHT22;32204;49.160;8.580;2023-11-18T14:05:52;9.90;99.90
46490;DHT22;32204;49.160;8.580;2023-11-18T14:08:18;9.90;1.00
46490;DHT22;32204;49.160;8.580;2023-11-18T14:10:45;9.90;99.90
46490;DHT22;32204;49.160;8.580;2023-11-18T14:13:14;10.00;38.70
46490;DHT22;32204;49.160;8.580;2023-11-18T14:15:42;10.10;1.00
46490;DHT22;32204;49.160;8.580;2023-11-18T14:18:10;10.30;1.00
46490;DHT22;32204;49.160;8.580;2023-11-18T14:20:36;10.50;99.90
46490;DHT22;32204;49.160;8.580;2023-11-18T14:23:02;10.50;99.90
46490;DHT22;32204;49.160;8.580;2023-11-18T14:25:31;10.60;99.90
46490;DHT22;32204;49.160;8.580;2023-11-18T14:27:58;10.70;1.00
46490;DHT22;32204;49.160;8.580;2023-11-18T14:30:23;10.60;99.90
46490;DHT22;32204;49.160;8.580;2023-11-18T14:32:52;10.70;99.90
46490;DHT22;32204;49.160;8.580;2023-11-18T14:35:18;10.60;99.90
46490;DHT22;32204;49.160;8.580;2023-11-18T14:37:44;10.50;99.90
46490;DHT22;32204;49.160;8.580;2023-11-18T14:40:14;10.50;99.90
46490;DHT22;32204;49.160;8.580;2023-11-18T14:42:45;10.60;99.90
46490;DHT22;32204;49.160;8.580;2023-11-18T14:45:13;10.50;1.00
46490;DHT22;32204;49.160;8.580;2023-11-18T14:47:40;10.60;99.90
46490;DHT22;32204;49.160;8.580;2023-11-18T14:50:06;10.60;99.90
46490;DHT22;32204;49.160;8.580;2023-11-18T14:52:43;10.60;99.90
46490;DHT22;32204;49.160;8.580;2023-11-18T14:55:09;10.70;99.90
46490;DHT22;32204;49.160;8.580;2023-11-18T14:57:40;10.80;99.90
46490;DHT22;32204;49.160;8.580;2023-11-18T15:00:07;10.80;1.00
46490;DHT22;32204;49.160;8.580;2023-11-18T15:02:44;10.80;1.00
46490;DHT22;32204;49.160;8.580;2023-11-18T15:05:11;10.70;1.00
46490;DHT22;32204;49.160;8.580;2023-11-18T15:07:37;10.70;99.90
46490;DHT22;32204;49.160;8.580;2023-11-18T15:10:03;10.70;1.00
46490;DHT22;32204;49.160;8.580;2023-11-18T15:12:29;10.70;99.90
46490;DHT22;32204;49.160;8.580;2023-11-18T15:14:55;10.70;1.00
46490;DHT22;32204;49.160;8.580;2023-11-18T15:17:25;10.60;1.00
46490;DHT22;32204;49.160;8.580;2023-11-18T15:19:51;10.50;99.90
46490;DHT22;32204;49.160;8.580;2023-11-18T15:22:16;10.60;99.90
46490;DHT22;32204;49.160;8.580;2023-11-18T15:24:42;10.50;18.00
46490;DHT22;32204;49.160;8.580;2023-11-18T15:27:07;10.50;1.00
46490;DHT22;32204;49.160;8.580;2023-11-18T15:29:33;10.60;1.00
46490;DHT22;32204;49.160;8.580;2023-11-18T15:32:04;10.70;1.00
46490;DHT22;32204;49.160;8.580;2023-11-18T15:34:30;10.80;20.20
46490;DHT22;32204;49.160;8.580;2023-11-18T15:36:57;10.70;1.00
46490;DHT22;32204;49.160;8.580;2023-11-18T15:39:26;10.50;1.00
46490;DHT22;32204;49.160;8.580;2023-11-18T15:41:51;10.40;1.00
46490;DHT22;32204;49.160;8.580;2023-11-18T15:44:17;10.50;99.90
46490;DHT22;32204;49.160;8.580;2023-11-18T15:46:48;10.50;18.40
46490;DHT22;32204;49.160;8.580;2023-11-18T15:49:15;10.40;99.90
46490;DHT22;32204;49.160;8.580;2023-11-18T15:51:42;10.30;99.90
46490;DHT22;32204;49.160;8.580;2023-11-18T15:54:08;10.10;1.00
46490;DHT22;32204;49.160;8.580;2023-11-18T15:56:34;10.00;99.90
46490;DHT22;32204;49.160;8.580;2023-11-18T15:58:59;10.10;99.90
46490;DHT22;32204;49.160;8.580;2023-11-18T16:01:25;10.10;99.90
46490;DHT22;32204;49.160;8.580;2023-11-18T16:03:50;10.10;1.00
46490;DHT22;32204;49.160;8.580;2023-11-18T16:06:16;10.20;99.90
46490;DHT22;32204;49.160;8.580;2023-11-18T16:08:42;10.30;99.90
46490;DHT22;32204;49.160;8.580;2023-11-18T16:11:11;10.30;1.00
46490;DHT22;32204;49.160;8.580;2023-11-18T16:13:36;10.40;52.40
46490;DHT22;32204;49.160;8.580;2023-11-18T16:16:02;10.40;99.90